sensor_id;sensor_type;location;lat;lon;timestamp;P1;durP1;ratioP1;P2;durP2;ratioP2
36441;SDS011;64346;50.820;16.274;2023-09-19T00:00:28;10.05;;;5.65;;
36441;SDS011;64346;50.820;16.274;2023-09-19T00:03:15;11.15;;;5.38;;
36441;SDS011;64346;50.820;16.274;2023-09-19T00:05:43;9.75;;;5.30;;
36441;SDS011;64346;50.820;16.274;2023-09-19T00:08:11;8.98;;;4.63;;
36441;SDS011;64346;50.820;16.274;2023-09-19T00:10:39;8.70;;;4.65;;
36441;SDS011;64346;50.820;16.274;2023-09-19T00:13:06;9.13;;;4.35;;
36441;SDS011;64346;50.820;16.274;2023-09-19T00:15:41;9.10;;;4.15;;
36441;SDS011;64346;50.820;16.274;2023-09-19T00:18:12;8.63;;;3.78;;
36441;SDS011;64346;50.820;16.274;2023-09-19T00:20:45;7.85;;;4.10;;
36441;SDS011;64346;50.820;16.274;2023-09-19T00:23:13;7.80;;;3.80;;
36441;SDS011;64346;50.820;16.274;2023-09-19T00:25:40;7.18;;;4.05;;
36441;SDS011;64346;50.820;16.274;2023-09-19T00:28:08;7.07;;;3.85;;
36441;SDS011;64346;50.820;16.274;2023-09-19T00:30:35;8.18;;;3.95;;
36441;SDS011;64346;50.820;16.274;2023-09-19T00:33:05;8.32;;;4.05;;
36441;SDS011;64346;50.820;16.274;2023-09-19T00:35:33;8.93;;;3.90;;
36441;SDS011;64346;50.820;16.274;2023-09-19T00:38:00;7.75;;;3.55;;
36441;SDS011;64346;50.820;16.274;2023-09-19T00:40:30;8.88;;;4.28;;
36441;SDS011;64346;50.820;16.274;2023-09-19T00:42:57;7.82;;;3.72;;
36441;SDS011;64346;50.820;16.274;2023-09-19T00:45:28;10.07;;;4.13;;
36441;SDS011;64346;50.820;16.274;2023-09-19T00:47:55;7.18;;;4.30;;
36441;SDS011;64346;50.820;16.274;2023-09-19T00:50:24;9.70;;;4.32;;
36441;SDS011;64346;50.820;16.274;2023-09-19T00:52:55;8.50;;;4.85;;
36441;SDS011;64346;50.820;16.274;2023-09-19T00:55:23;8.60;;;4.97;;
36441;SDS011;64346;50.820;16.274;2023-09-19T00:57:52;9.73;;;5.70;;
36441;SDS011;64346;50.820;16.274;2023-09-19T01:00:22;12.98;;;6.45;;
36441;SDS011;64346;50.820;16.274;2023-09-19T01:02:49;9.77;;;6.00;;
36441;SDS011;64346;50.820;16.274;2023-09-19T01:05:17;12.18;;;6.80;;
36441;SDS011;64346;50.820;16.274;2023-09-19T01:07:46;11.98;;;5.93;;
36441;SDS011;64346;50.820;16.274;2023-09-19T01:10:14;11.82;;;6.28;;
36441;SDS011;64346;50.820;16.274;2023-09-19T01:27:21;13.02;;;7.47;;
36441;SDS011;64346;50.820;16.274;2023-09-19T01:29:52;13.57;;;7.93;;
36441;SDS011;64346;50.820;16.274;2023-09-19T01:32:20;12.13;;;7.47;;
36441;SDS011;64346;50.820;16.274;2023-09-19T01:34:50;14.27;;;8.15;;
36441;SDS011;64346;50.820;16.274;2023-09-19T01:37:19;12.57;;;7.88;;
36441;SDS011;64346;50.820;16.274;2023-09-19T01:39:48;11.77;;;7.10;;
36441;SDS011;64346;50.820;16.274;2023-09-19T01:42:24;10.68;;;6.45;;
36441;SDS011;64346;50.820;16.274;2023-09-19T01:47:48;8.30;;;4.73;;
36441;SDS011;64346;50.820;16.274;2023-09-19T01:53:43;9.80;;;3.47;;
36441;SDS011;64346;50.820;16.274;2023-09-19T01:55:54;5.95;;;3.30;;
36441;SDS011;64346;50.820;16.274;2023-09-19T02:00:49;5.70;;;3.20;;
36441;SDS011;64346;50.820;16.274;2023-09-19T02:03:19;8.23;;;3.47;;
36441;SDS011;64346;50.820;16.274;2023-09-19T02:05:50;7.25;;;3.35;;
36441;SDS011;64346;50.820;16.274;2023-09-19T02:08:18;5.45;;;2.95;;
36441;SDS011;64346;50.820;16.274;2023-09-19T02:10:46;5.97;;;3.28;;
36441;SDS011;64346;50.820;16.274;2023-09-19T02:13:17;6.97;;;3.00;;
36441;SDS011;64346;50.820;16.274;2023-09-19T02:15:45;6.90;;;2.80;;
36441;SDS011;64346;50.820;16.274;2023-09-19T02:18:13;8.63;;;3.00;;
36441;SDS011;64346;50.820;16.274;2023-09-19T02:20:41;8.60;;;3.72;;
36441;SDS011;64346;50.820;16.274;2023-09-19T02:23:09;6.18;;;2.42;;
36441;SDS011;64346;50.820;16.274;2023-09-19T02:25:39;4.70;;;2.20;;
36441;SDS011;64346;50.820;16.274;2023-09-19T02:28:09;4.65;;;2.13;;
36441;SDS011;64346;50.820;16.274;2023-09-19T02:30:36;4.18;;;1.90;;
36441;SDS011;64346;50.820;16.274;2023-09-19T02:33:03;3.95;;;2.00;;
36441;SDS011;64346;50.820;16.274;2023-09-19T02:35:31;4.53;;;2.55;;
36441;SDS011;64346;50.820;16.274;2023-09-19T02:37:58;5.88;;;1.98;;
36441;SDS011;64346;50.820;16.274;2023-09-19T02:40:25;3.75;;;2.05;;
36441;SDS011;64346;50.820;16.274;2023-09-19T02:42:53;5.38;;;1.85;;
36441;SDS011;64346;50.820;16.274;2023-09-19T02:45:21;4.32;;;2.08;;
36441;SDS011;64346;50.820;16.274;2023-09-19T02:47:49;4.63;;;2.13;;
36441;SDS011;64346;50.820;16.274;2023-09-19T02:50:16;5.43;;;2.20;;
36441;SDS011;64346;50.820;16.274;2023-09-19T02:52:44;4.57;;;1.85;;
36441;SDS011;64346;50.820;16.274;2023-09-19T02:55:13;4.10;;;2.03;;
36441;SDS011;64346;50.820;16.274;2023-09-19T02:57:44;6.72;;;2.75;;
36441;SDS011;64346;50.820;16.274;2023-09-19T03:00:18;4.53;;;2.30;;
36441;SDS011;64346;50.820;16.274;2023-09-19T03:02:46;4.03;;;2.03;;
36441;SDS011;64346;50.820;16.274;2023-09-19T03:05:17;4.32;;;2.00;;
36441;SDS011;64346;50.820;16.274;2023-09-19T03:07:44;6.95;;;2.40;;
36441;SDS011;64346;50.820;16.274;2023-09-19T03:10:15;4.13;;;2.00;;
36441;SDS011;64346;50.820;16.274;2023-09-19T03:12:43;4.53;;;2.10;;
36441;SDS011;64346;50.820;16.274;2023-09-19T03:15:10;3.47;;;2.05;;
36441;SDS011;64346;50.820;16.274;2023-09-19T03:17:38;5.80;;;2.42;;
36441;SDS011;64346;50.820;16.274;2023-09-19T03:20:10;4.13;;;2.30;;
36441;SDS011;64346;50.820;16.274;2023-09-19T03:22:38;5.97;;;2.58;;
36441;SDS011;64346;50.820;16.274;2023-09-19T03:25:06;5.88;;;2.53;;
36441;SDS011;64346;50.820;16.274;2023-09-19T03:27:37;5.25;;;1.80;;
36441;SDS011;64346;50.820;16.274;2023-09-19T03:30:07;5.93;;;2.30;;
36441;SDS011;64346;50.820;16.274;2023-09-19T03:32:35;4.45;;;2.08;;
36441;SDS011;64346;50.820;16.274;2023-09-19T03:35:03;5.20;;;2.00;;
36441;SDS011;64346;50.820;16.274;2023-09-19T03:37:33;3.90;;;2.10;;
36441;SDS011;64346;50.820;16.274;2023-09-19T03:40:00;3.92;;;1.92;;
36441;SDS011;64346;50.820;16.274;2023-09-19T03:42:28;3.85;;;2.15;;
36441;SDS011;64346;50.820;16.274;2023-09-19T03:44:55;4.85;;;2.35;;
36441;SDS011;64346;50.820;16.274;2023-09-19T03:47:22;5.30;;;2.42;;
36441;SDS011;64346;50.820;16.274;2023-09-19T03:49:52;6.00;;;2.53;;
36441;SDS011;64346;50.820;16.274;2023-09-19T03:52:26;5.82;;;2.50;;
36441;SDS011;64346;50.820;16.274;2023-09-19T03:54:53;5.30;;;1.80;;
36441;SDS011;64346;50.820;16.274;2023-09-19T03:57:20;5.75;;;2.25;;
36441;SDS011;64346;50.820;16.274;2023-09-19T03:59:47;5.18;;;2.55;;
36441;SDS011;64346;50.820;16.274;2023-09-19T04:02:15;7.93;;;2.58;;
36441;SDS011;64346;50.820;16.274;2023-09-19T04:04:42;6.82;;;2.58;;
36441;SDS011;64346;50.820;16.274;2023-09-19T04:07:10;5.30;;;2.22;;
36441;SDS011;64346;50.820;16.274;2023-09-19T04:09:39;8.15;;;3.20;;
36441;SDS011;64346;50.820;16.274;2023-09-19T04:12:07;6.47;;;2.80;;
36441;SDS011;64346;50.820;16.274;2023-09-19T04:14:34;9.60;;;3.80;;
36441;SDS011;64346;50.820;16.274;2023-09-19T04:17:04;4.22;;;2.60;;
36441;SDS011;64346;50.820;16.274;2023-09-19T04:19:35;3.78;;;2.05;;
36441;SDS011;64346;50.820;16.274;2023-09-19T04:22:03;7.38;;;2.90;;
36441;SDS011;64346;50.820;16.274;2023-09-19T04:24:33;7.03;;;2.55;;
36441;SDS011;64346;50.820;16.274;2023-09-19T04:27:02;4.72;;;2.63;;
36441;SDS011;64346;50.820;16.274;2023-09-19T04:29:30;6.88;;;2.75;;
36441;SDS011;64346;50.820;16.274;2023-09-19T04:32:00;11.00;;;4.13;;
36441;SDS011;64346;50.820;16.274;2023-09-19T04:34:27;7.07;;;3.35;;
36441;SDS011;64346;50.820;16.274;2023-09-19T04:36:57;6.90;;;3.28;;
36441;SDS011;64346;50.820;16.274;2023-09-19T04:39:24;8.50;;;2.88;;
36441;SDS011;64346;50.820;16.274;2023-09-19T04:41:51;6.78;;;2.88;;
36441;SDS011;64346;50.820;16.274;2023-09-19T04:44:19;6.60;;;2.90;;
36441;SDS011;64346;50.820;16.274;2023-09-19T04:46:47;9.57;;;3.97;;
36441;SDS011;64346;50.820;16.274;2023-09-19T04:49:14;17.08;;;6.50;;
36441;SDS011;64346;50.820;16.274;2023-09-19T04:51:42;18.63;;;7.97;;
36441;SDS011;64346;50.820;16.274;2023-09-19T04:54:09;18.77;;;8.13;;
36441;SDS011;64346;50.820;16.274;2023-09-19T04:56:36;16.67;;;7.18;;
36441;SDS011;64346;50.820;16.274;2023-09-19T04:59:06;14.32;;;6.10;;
36441;SDS011;64346;50.820;16.274;2023-09-19T05:01:33;16.98;;;6.43;;
36441;SDS011;64346;50.820;16.274;2023-09-19T05:04:01;12.05;;;5.53;;
36441;SDS011;64346;50.820;16.274;2023-09-19T05:06:28;13.15;;;5.53;;
36441;SDS011;64346;50.820;16.274;2023-09-19T05:08:55;12.32;;;5.65;;
36441;SDS011;64346;50.820;16.274;2023-09-19T05:11:23;10.65;;;4.78;;
36441;SDS011;64346;50.820;16.274;2023-09-19T05:13:50;8.65;;;4.50;;
36441;SDS011;64346;50.820;16.274;2023-09-19T05:16:17;10.68;;;4.57;;
36441;SDS011;64346;50.820;16.274;2023-09-19T05:18:45;9.40;;;4.30;;
36441;SDS011;64346;50.820;16.274;2023-09-19T05:21:12;11.63;;;4.53;;
36441;SDS011;64346;50.820;16.274;2023-09-19T05:23:40;9.77;;;4.45;;
36441;SDS011;64346;50.820;16.274;2023-09-19T05:26:08;13.65;;;6.13;;
36441;SDS011;64346;50.820;16.274;2023-09-19T05:28:35;7.75;;;4.05;;
36441;SDS011;64346;50.820;16.274;2023-09-19T05:31:02;7.18;;;3.33;;
36441;SDS011;64346;50.820;16.274;2023-09-19T05:33:32;8.15;;;3.80;;
36441;SDS011;64346;50.820;16.274;2023-09-19T05:35:59;8.52;;;3.63;;
36441;SDS011;64346;50.820;16.274;2023-09-19T05:38:26;7.05;;;3.63;;
36441;SDS011;64346;50.820;16.274;2023-09-19T05:40:54;7.30;;;4.20;;
36441;SDS011;64346;50.820;16.274;2023-09-19T05:43:21;6.53;;;3.58;;
36441;SDS011;64346;50.820;16.274;2023-09-19T05:45:49;9.43;;;4.03;;
36441;SDS011;64346;50.820;16.274;2023-09-19T05:48:19;10.70;;;4.53;;
36441;SDS011;64346;50.820;16.274;2023-09-19T05:50:48;8.23;;;3.65;;
36441;SDS011;64346;50.820;16.274;2023-09-19T05:53:16;10.75;;;4.22;;
36441;SDS011;64346;50.820;16.274;2023-09-19T05:55:45;8.00;;;4.22;;
36441;SDS011;64346;50.820;16.274;2023-09-19T05:58:15;12.48;;;5.47;;
36441;SDS011;64346;50.820;16.274;2023-09-19T06:00:43;13.18;;;5.70;;
36441;SDS011;64346;50.820;16.274;2023-09-19T06:03:10;9.02;;;3.75;;
36441;SDS011;64346;50.820;16.274;2023-09-19T06:05:40;10.07;;;3.80;;
36441;SDS011;64346;50.820;16.274;2023-09-19T06:08:07;11.82;;;3.58;;
36441;SDS011;64346;50.820;16.274;2023-09-19T06:10:35;7.18;;;3.25;;
36441;SDS011;64346;50.820;16.274;2023-09-19T06:13:03;7.38;;;3.33;;
36441;SDS011;64346;50.820;16.274;2023-09-19T06:15:31;6.47;;;3.10;;
36441;SDS011;64346;50.820;16.274;2023-09-19T06:17:58;6.40;;;2.70;;
36441;SDS011;64346;50.820;16.274;2023-09-19T06:20:26;9.80;;;3.25;;
36441;SDS011;64346;50.820;16.274;2023-09-19T06:22:56;7.47;;;3.20;;
36441;SDS011;64346;50.820;16.274;2023-09-19T06:25:23;4.05;;;2.70;;
36441;SDS011;64346;50.820;16.274;2023-09-19T06:27:51;6.55;;;2.92;;
36441;SDS011;64346;50.820;16.274;2023-09-19T06:30:20;8.52;;;3.60;;
36441;SDS011;64346;50.820;16.274;2023-09-19T06:32:48;5.88;;;2.60;;
36441;SDS011;64346;50.820;16.274;2023-09-19T06:35:18;4.10;;;2.20;;
36441;SDS011;64346;50.820;16.274;2023-09-19T06:37:45;3.55;;;2.15;;
36441;SDS011;64346;50.820;16.274;2023-09-19T06:40:15;4.95;;;2.10;;
36441;SDS011;64346;50.820;16.274;2023-09-19T06:42:51;5.85;;;2.15;;
36441;SDS011;64346;50.820;16.274;2023-09-19T06:45:20;5.18;;;2.20;;
36441;SDS011;64346;50.820;16.274;2023-09-19T06:47:52;4.40;;;1.90;;
36441;SDS011;64346;50.820;16.274;2023-09-19T06:50:20;5.95;;;2.40;;
36441;SDS011;64346;50.820;16.274;2023-09-19T06:52:49;5.32;;;2.33;;
36441;SDS011;64346;50.820;16.274;2023-09-19T06:55:20;4.90;;;2.10;;
36441;SDS011;64346;50.820;16.274;2023-09-19T06:57:51;4.03;;;2.30;;
36441;SDS011;64346;50.820;16.274;2023-09-19T07:00:18;4.72;;;2.22;;
36441;SDS011;64346;50.820;16.274;2023-09-19T07:02:54;4.63;;;2.55;;
36441;SDS011;64346;50.820;16.274;2023-09-19T07:05:32;4.45;;;2.15;;
36441;SDS011;64346;50.820;16.274;2023-09-19T07:08:02;4.25;;;2.10;;
36441;SDS011;64346;50.820;16.274;2023-09-19T07:10:32;3.83;;;2.20;;
36441;SDS011;64346;50.820;16.274;2023-09-19T07:13:00;7.63;;;3.53;;
36441;SDS011;64346;50.820;16.274;2023-09-19T07:15:29;6.05;;;3.10;;
36441;SDS011;64346;50.820;16.274;2023-09-19T07:17:59;5.95;;;2.55;;
36441;SDS011;64346;50.820;16.274;2023-09-19T07:20:29;6.40;;;2.95;;
36441;SDS011;64346;50.820;16.274;2023-09-19T07:23:01;6.63;;;2.83;;
36441;SDS011;64346;50.820;16.274;2023-09-19T07:25:29;7.15;;;2.67;;
36441;SDS011;64346;50.820;16.274;2023-09-19T07:27:58;4.38;;;2.20;;
36441;SDS011;64346;50.820;16.274;2023-09-19T07:30:28;3.33;;;1.90;;
36441;SDS011;64346;50.820;16.274;2023-09-19T07:32:55;5.68;;;2.42;;
36441;SDS011;64346;50.820;16.274;2023-09-19T07:35:23;7.30;;;2.10;;
36441;SDS011;64346;50.820;16.274;2023-09-19T07:37:53;5.32;;;2.30;;
36441;SDS011;64346;50.820;16.274;2023-09-19T07:40:20;5.70;;;2.63;;
36441;SDS011;64346;50.820;16.274;2023-09-19T07:42:48;5.35;;;2.10;;
36441;SDS011;64346;50.820;16.274;2023-09-19T07:45:16;18.90;;;11.27;;
36441;SDS011;64346;50.820;16.274;2023-09-19T07:47:48;7.10;;;3.42;;
36441;SDS011;64346;50.820;16.274;2023-09-19T07:50:18;4.20;;;2.17;;
36441;SDS011;64346;50.820;16.274;2023-09-19T07:52:46;5.13;;;1.90;;
36441;SDS011;64346;50.820;16.274;2023-09-19T07:55:14;3.38;;;1.90;;
36441;SDS011;64346;50.820;16.274;2023-09-19T07:57:42;3.45;;;2.10;;
36441;SDS011;64346;50.820;16.274;2023-09-19T08:00:13;4.63;;;2.00;;
36441;SDS011;64346;50.820;16.274;2023-09-19T08:02:40;3.60;;;1.90;;
36441;SDS011;64346;50.820;16.274;2023-09-19T08:05:12;5.97;;;2.30;;
36441;SDS011;64346;50.820;16.274;2023-09-19T08:07:43;3.05;;;1.80;;
36441;SDS011;64346;50.820;16.274;2023-09-19T08:10:14;5.10;;;1.70;;
36441;SDS011;64346;50.820;16.274;2023-09-19T08:12:44;3.78;;;1.80;;
36441;SDS011;64346;50.820;16.274;2023-09-19T08:15:13;7.22;;;1.90;;
36441;SDS011;64346;50.820;16.274;2023-09-19T08:17:42;4.05;;;1.70;;
36441;SDS011;64346;50.820;16.274;2023-09-19T08:20:12;2.47;;;1.80;;
36441;SDS011;64346;50.820;16.274;2023-09-19T08:22:40;4.60;;;2.22;;
36441;SDS011;64346;50.820;16.274;2023-09-19T08:25:13;6.90;;;2.47;;
36441;SDS011;64346;50.820;16.274;2023-09-19T08:27:42;7.35;;;2.13;;
36441;SDS011;64346;50.820;16.274;2023-09-19T08:30:11;4.57;;;2.05;;
36441;SDS011;64346;50.820;16.274;2023-09-19T08:32:38;4.57;;;2.20;;
36441;SDS011;64346;50.820;16.274;2023-09-19T08:35:09;4.47;;;1.95;;
36441;SDS011;64346;50.820;16.274;2023-09-19T08:37:37;7.38;;;3.25;;
36441;SDS011;64346;50.820;16.274;2023-09-19T08:40:07;5.25;;;2.00;;
36441;SDS011;64346;50.820;16.274;2023-09-19T08:42:47;5.20;;;2.20;;
36441;SDS011;64346;50.820;16.274;2023-09-19T08:45:19;7.88;;;2.70;;
36441;SDS011;64346;50.820;16.274;2023-09-19T08:47:50;4.40;;;1.88;;
36441;SDS011;64346;50.820;16.274;2023-09-19T08:50:31;4.07;;;2.00;;
36441;SDS011;64346;50.820;16.274;2023-09-19T08:53:00;5.63;;;2.22;;
36441;SDS011;64346;50.820;16.274;2023-09-19T08:55:35;3.67;;;1.77;;
36441;SDS011;64346;50.820;16.274;2023-09-19T08:58:03;4.47;;;1.88;;
36441;SDS011;64346;50.820;16.274;2023-09-19T09:00:33;5.25;;;2.03;;
36441;SDS011;64346;50.820;16.274;2023-09-19T09:03:04;3.73;;;1.70;;
36441;SDS011;64346;50.820;16.274;2023-09-19T09:05:36;5.03;;;1.52;;
36441;SDS011;64346;50.820;16.274;2023-09-19T09:08:08;5.97;;;1.60;;
36441;SDS011;64346;50.820;16.274;2023-09-19T09:10:37;3.92;;;1.60;;
36441;SDS011;64346;50.820;16.274;2023-09-19T09:13:04;3.40;;;1.48;;
36441;SDS011;64346;50.820;16.274;2023-09-19T09:15:34;3.58;;;1.67;;
36441;SDS011;64346;50.820;16.274;2023-09-19T09:18:02;4.35;;;2.10;;
36441;SDS011;64346;50.820;16.274;2023-09-19T09:20:33;4.40;;;1.80;;
36441;SDS011;64346;50.820;16.274;2023-09-19T09:23:00;9.65;;;3.38;;
36441;SDS011;64346;50.820;16.274;2023-09-19T09:25:46;5.90;;;2.60;;
36441;SDS011;64346;50.820;16.274;2023-09-19T09:28:23;5.03;;;1.83;;
36441;SDS011;64346;50.820;16.274;2023-09-19T09:30:55;3.92;;;1.45;;
36441;SDS011;64346;50.820;16.274;2023-09-19T09:33:23;4.88;;;1.65;;
36441;SDS011;64346;50.820;16.274;2023-09-19T09:38:21;5.10;;;2.75;;
36441;SDS011;64346;50.820;16.274;2023-09-19T09:40:52;5.95;;;2.05;;
36441;SDS011;64346;50.820;16.274;2023-09-19T09:43:25;5.30;;;1.67;;
36441;SDS011;64346;50.820;16.274;2023-09-19T09:48:33;2.28;;;1.40;;
36441;SDS011;64346;50.820;16.274;2023-09-19T09:51:01;6.55;;;1.88;;
36441;SDS011;64346;50.820;16.274;2023-09-19T09:53:30;1.98;;;1.30;;
36441;SDS011;64346;50.820;16.274;2023-09-19T09:58:28;4.82;;;2.42;;
36441;SDS011;64346;50.820;16.274;2023-09-19T10:00:56;3.72;;;2.03;;
36441;SDS011;64346;50.820;16.274;2023-09-19T10:03:36;5.60;;;2.53;;
36441;SDS011;64346;50.820;16.274;2023-09-19T10:06:08;3.50;;;1.42;;
36441;SDS011;64346;50.820;16.274;2023-09-19T10:08:37;5.97;;;1.83;;
36441;SDS011;64346;50.820;16.274;2023-09-19T10:11:17;3.40;;;1.90;;
36441;SDS011;64346;50.820;16.274;2023-09-19T10:13:47;2.65;;;1.55;;
36441;SDS011;64346;50.820;16.274;2023-09-19T10:16:15;4.35;;;1.70;;
36441;SDS011;64346;50.820;16.274;2023-09-19T10:18:43;4.72;;;2.03;;
36441;SDS011;64346;50.820;16.274;2023-09-19T10:21:13;1.75;;;1.48;;
36441;SDS011;64346;50.820;16.274;2023-09-19T10:23:40;3.63;;;1.75;;
36441;SDS011;64346;50.820;16.274;2023-09-19T10:26:12;2.65;;;1.40;;
36441;SDS011;64346;50.820;16.274;2023-09-19T10:28:45;1.90;;;1.20;;
36441;SDS011;64346;50.820;16.274;2023-09-19T10:31:18;3.17;;;1.70;;
36441;SDS011;64346;50.820;16.274;2023-09-19T10:33:46;3.15;;;2.25;;
36441;SDS011;64346;50.820;16.274;2023-09-19T10:36:16;3.03;;;1.52;;
36441;SDS011;64346;50.820;16.274;2023-09-19T10:38:44;1.98;;;1.40;;
36441;SDS011;64346;50.820;16.274;2023-09-19T10:41:16;2.13;;;1.35;;
36441;SDS011;64346;50.820;16.274;2023-09-19T10:43:49;3.08;;;1.75;;
36441;SDS011;64346;50.820;16.274;2023-09-19T10:46:19;2.17;;;1.50;;
36441;SDS011;64346;50.820;16.274;2023-09-19T10:48:46;2.30;;;1.50;;
36441;SDS011;64346;50.820;16.274;2023-09-19T10:51:21;5.82;;;1.90;;
36441;SDS011;64346;50.820;16.274;2023-09-19T10:53:56;1.50;;;1.40;;
36441;SDS011;64346;50.820;16.274;2023-09-19T10:56:49;2.65;;;1.67;;
36441;SDS011;64346;50.820;16.274;2023-09-19T10:59:18;3.50;;;1.77;;
36441;SDS011;64346;50.820;16.274;2023-09-19T11:01:50;4.15;;;1.55;;
36441;SDS011;64346;50.820;16.274;2023-09-19T11:07:13;2.33;;;1.70;;
36441;SDS011;64346;50.820;16.274;2023-09-19T11:09:54;2.70;;;1.30;;
36441;SDS011;64346;50.820;16.274;2023-09-19T11:15:01;2.85;;;1.50;;
36441;SDS011;64346;50.820;16.274;2023-09-19T11:36:05;4.13;;;1.90;;
36441;SDS011;64346;50.820;16.274;2023-09-19T11:49:19;4.45;;;2.20;;
36441;SDS011;64346;50.820;16.274;2023-09-19T11:52:01;4.25;;;2.15;;
36441;SDS011;64346;50.820;16.274;2023-09-19T11:54:29;5.25;;;2.55;;
36441;SDS011;64346;50.820;16.274;2023-09-19T11:57:00;5.22;;;2.03;;
36441;SDS011;64346;50.820;16.274;2023-09-19T11:59:29;3.30;;;2.00;;
36441;SDS011;64346;50.820;16.274;2023-09-19T12:01:58;3.75;;;2.00;;
36441;SDS011;64346;50.820;16.274;2023-09-19T12:04:35;4.00;;;1.67;;
36441;SDS011;64346;50.820;16.274;2023-09-19T12:07:07;4.80;;;1.88;;
36441;SDS011;64346;50.820;16.274;2023-09-19T12:09:38;4.13;;;1.92;;
36441;SDS011;64346;50.820;16.274;2023-09-19T12:12:18;4.93;;;2.60;;
36441;SDS011;64346;50.820;16.274;2023-09-19T12:14:53;5.55;;;2.50;;
36441;SDS011;64346;50.820;16.274;2023-09-19T12:17:21;3.08;;;1.80;;
36441;SDS011;64346;50.820;16.274;2023-09-19T12:19:52;4.85;;;2.50;;
36441;SDS011;64346;50.820;16.274;2023-09-19T12:22:23;6.20;;;2.63;;
36441;SDS011;64346;50.820;16.274;2023-09-19T12:24:50;3.60;;;2.08;;
36441;SDS011;64346;50.820;16.274;2023-09-19T12:27:17;4.38;;;2.30;;
36441;SDS011;64346;50.820;16.274;2023-09-19T12:29:48;4.97;;;2.60;;
36441;SDS011;64346;50.820;16.274;2023-09-19T12:32:16;16.65;;;11.60;;
36441;SDS011;64346;50.820;16.274;2023-09-19T12:34:50;6.45;;;3.28;;
36441;SDS011;64346;50.820;16.274;2023-09-19T12:37:22;3.95;;;2.05;;
36441;SDS011;64346;50.820;16.274;2023-09-19T12:39:53;4.22;;;2.08;;
36441;SDS011;64346;50.820;16.274;2023-09-19T12:42:29;3.30;;;1.80;;
36441;SDS011;64346;50.820;16.274;2023-09-19T12:44:57;5.03;;;1.95;;
36441;SDS011;64346;50.820;16.274;2023-09-19T12:47:25;4.13;;;1.80;;
36441;SDS011;64346;50.820;16.274;2023-09-19T12:50:10;4.40;;;1.95;;
36441;SDS011;64346;50.820;16.274;2023-09-19T12:52:49;3.80;;;1.95;;
36441;SDS011;64346;50.820;16.274;2023-09-19T12:55:24;7.30;;;2.47;;
36441;SDS011;64346;50.820;16.274;2023-09-19T13:00:42;4.50;;;2.55;;
36441;SDS011;64346;50.820;16.274;2023-09-19T13:05:49;7.15;;;2.97;;
36441;SDS011;64346;50.820;16.274;2023-09-19T13:11:08;4.85;;;2.17;;
36441;SDS011;64346;50.820;16.274;2023-09-19T13:13:39;5.47;;;2.60;;
36441;SDS011;64346;50.820;16.274;2023-09-19T13:16:13;5.93;;;2.97;;
36441;SDS011;64346;50.820;16.274;2023-09-19T13:18:42;6.60;;;2.70;;
36441;SDS011;64346;50.820;16.274;2023-09-19T13:21:17;6.18;;;2.70;;
36441;SDS011;64346;50.820;16.274;2023-09-19T13:24:01;5.07;;;2.53;;
36441;SDS011;64346;50.820;16.274;2023-09-19T13:26:50;4.32;;;2.45;;
36441;SDS011;64346;50.820;16.274;2023-09-19T13:29:18;3.75;;;2.28;;
36441;SDS011;64346;50.820;16.274;2023-09-19T13:31:48;5.10;;;2.65;;
36441;SDS011;64346;50.820;16.274;2023-09-19T13:34:16;8.77;;;4.38;;
36441;SDS011;64346;50.820;16.274;2023-09-19T13:36:44;8.65;;;3.42;;
36441;SDS011;64346;50.820;16.274;2023-09-19T13:39:17;4.32;;;2.40;;
36441;SDS011;64346;50.820;16.274;2023-09-19T13:41:45;5.43;;;2.40;;
36441;SDS011;64346;50.820;16.274;2023-09-19T13:44:22;5.40;;;3.00;;
36441;SDS011;64346;50.820;16.274;2023-09-19T13:46:50;7.28;;;4.13;;
36441;SDS011;64346;50.820;16.274;2023-09-19T13:49:17;10.05;;;5.15;;
36441;SDS011;64346;50.820;16.274;2023-09-19T13:51:54;5.78;;;2.67;;
36441;SDS011;64346;50.820;16.274;2023-09-19T13:54:21;5.88;;;2.72;;
36441;SDS011;64346;50.820;16.274;2023-09-19T13:56:51;4.97;;;2.50;;
36441;SDS011;64346;50.820;16.274;2023-09-19T13:59:21;5.25;;;2.80;;
36441;SDS011;64346;50.820;16.274;2023-09-19T14:01:51;5.47;;;2.58;;
36441;SDS011;64346;50.820;16.274;2023-09-19T14:04:21;6.65;;;2.40;;
36441;SDS011;64346;50.820;16.274;2023-09-19T14:06:48;5.47;;;2.25;;
36441;SDS011;64346;50.820;16.274;2023-09-19T14:09:18;6.43;;;3.20;;
36441;SDS011;64346;50.820;16.274;2023-09-19T14:11:51;8.40;;;2.38;;
36441;SDS011;64346;50.820;16.274;2023-09-19T14:14:18;5.97;;;2.70;;
36441;SDS011;64346;50.820;16.274;2023-09-19T14:16:50;5.78;;;2.30;;
36441;SDS011;64346;50.820;16.274;2023-09-19T14:19:20;8.95;;;4.85;;
36441;SDS011;64346;50.820;16.274;2023-09-19T14:21:50;6.45;;;3.38;;
36441;SDS011;64346;50.820;16.274;2023-09-19T14:24:18;5.35;;;2.75;;
36441;SDS011;64346;50.820;16.274;2023-09-19T14:26:45;7.07;;;3.15;;
36441;SDS011;64346;50.820;16.274;2023-09-19T14:29:13;16.10;;;9.55;;
36441;SDS011;64346;50.820;16.274;2023-09-19T14:31:40;7.57;;;3.45;;
36441;SDS011;64346;50.820;16.274;2023-09-19T14:34:08;8.77;;;3.20;;
36441;SDS011;64346;50.820;16.274;2023-09-19T14:39:08;8.07;;;3.25;;
36441;SDS011;64346;50.820;16.274;2023-09-19T14:41:38;8.80;;;3.97;;
36441;SDS011;64346;50.820;16.274;2023-09-19T14:44:08;6.85;;;3.28;;
36441;SDS011;64346;50.820;16.274;2023-09-19T14:46:39;4.85;;;2.90;;
36441;SDS011;64346;50.820;16.274;2023-09-19T14:49:06;8.18;;;3.58;;
36441;SDS011;64346;50.820;16.274;2023-09-19T14:51:37;6.63;;;2.78;;
36441;SDS011;64346;50.820;16.274;2023-09-19T14:54:07;6.00;;;2.95;;
36441;SDS011;64346;50.820;16.274;2023-09-19T14:56:34;7.50;;;3.20;;
36441;SDS011;64346;50.820;16.274;2023-09-19T14:59:04;6.22;;;2.63;;
36441;SDS011;64346;50.820;16.274;2023-09-19T15:01:31;5.20;;;2.35;;
36441;SDS011;64346;50.820;16.274;2023-09-19T15:03:59;10.43;;;4.40;;
36441;SDS011;64346;50.820;16.274;2023-09-19T15:06:27;6.82;;;3.42;;
36441;SDS011;64346;50.820;16.274;2023-09-19T15:08:55;8.77;;;3.53;;
36441;SDS011;64346;50.820;16.274;2023-09-19T15:11:22;8.55;;;3.78;;
36441;SDS011;64346;50.820;16.274;2023-09-19T15:13:52;7.15;;;2.80;;
36441;SDS011;64346;50.820;16.274;2023-09-19T15:16:22;10.45;;;4.50;;
36441;SDS011;64346;50.820;16.274;2023-09-19T15:18:49;5.57;;;2.97;;
36441;SDS011;64346;50.820;16.274;2023-09-19T15:21:19;5.22;;;3.05;;
36441;SDS011;64346;50.820;16.274;2023-09-19T15:23:46;18.88;;;12.95;;
36441;SDS011;64346;50.820;16.274;2023-09-19T15:26:14;6.70;;;3.03;;
36441;SDS011;64346;50.820;16.274;2023-09-19T15:28:41;7.05;;;2.50;;
36441;SDS011;64346;50.820;16.274;2023-09-19T15:31:12;3.92;;;2.40;;
36441;SDS011;64346;50.820;16.274;2023-09-19T15:33:40;5.20;;;2.55;;
36441;SDS011;64346;50.820;16.274;2023-09-19T15:41:25;6.47;;;3.22;;
36441;SDS011;64346;50.820;16.274;2023-09-19T15:43:54;6.53;;;2.92;;
36441;SDS011;64346;50.820;16.274;2023-09-19T15:46:23;5.78;;;2.85;;
36441;SDS011;64346;50.820;16.274;2023-09-19T15:48:50;5.22;;;2.72;;
36441;SDS011;64346;50.820;16.274;2023-09-19T15:51:20;7.03;;;3.20;;
36441;SDS011;64346;50.820;16.274;2023-09-19T15:53:52;6.63;;;3.20;;
36441;SDS011;64346;50.820;16.274;2023-09-19T15:56:23;5.95;;;2.97;;
36441;SDS011;64346;50.820;16.274;2023-09-19T15:58:54;7.00;;;3.47;;
36441;SDS011;64346;50.820;16.274;2023-09-19T16:01:22;12.50;;;6.18;;
36441;SDS011;64346;50.820;16.274;2023-09-19T16:03:51;14.98;;;8.82;;
36441;SDS011;64346;50.820;16.274;2023-09-19T16:06:25;20.80;;;13.93;;
36441;SDS011;64346;50.820;16.274;2023-09-19T16:08:57;11.77;;;7.45;;